Time;durP1;ratioP1;P1;durP2;ratioP2;P2;SDS_P1;SDS_P2;PMS_P1;PMS_P2;Temp;Humidity;BMP_temperature;BMP_pressure;BME280_temperature;BME280_humidity;BME280_pressure;Samples;Min_cycle;Max_cycle;Signal;HPM_P1;HPM_P2
2021/05/01 00:01:12;;;;;;;27.33;20.53;;;8.70;91.60;;;;;;5074460;28;20481;-77
2021/05/01 00:03:37;;;;;;;30.00;19.87;;;8.70;91.60;;;;;;5075103;28;20036;-77
2021/05/01 00:06:03;;;;;;;32.67;22.07;;;8.60;91.60;;;;;;5057240;28;20035;-77
2021/05/01 00:08:29;;;;;;;33.77;23.50;;;8.60;91.50;;;;;;5075079;28;20115;-77
2021/05/01 00:11:03;;;;;;;35.80;26.03;;;8.60;91.50;;;;;;5075020;28;20028;-77
2021/05/01 00:13:31;;;;;;;31.02;23.15;;;8.60;91.50;;;;;;5075078;28;20472;-77
2021/05/01 00:15:58;;;;;;;33.60;23.97;;;8.60;91.50;;;;;;5074853;28;20024;-77
2021/05/01 00:18:24;;;;;;;36.77;23.93;;;8.60;91.50;;;;;;5056871;28;20025;-77
2021/05/01 00:20:50;;;;;;;38.83;23.87;;;8.60;91.50;;;;;;5074441;28;20055;-77
2021/05/01 00:23:15;;;;;;;29.47;21.30;;;8.60;91.40;;;;;;5070879;28;20029;-77
2021/05/01 00:25:41;;;;;;;34.40;22.83;;;8.60;91.40;;;;;;5055682;28;20158;-78
2021/05/01 00:28:07;;;;;;;35.57;23.23;;;8.60;91.40;;;;;;5073154;28;20025;-78
2021/05/01 00:30:32;;;;;;;31.20;22.77;;;8.60;91.30;;;;;;5056144;28;20476;-77
2021/05/01 00:32:58;;;;;;;30.67;21.30;;;8.50;91.20;;;;;;5074466;28;20047;-77
2021/05/01 00:35:27;;;;;;;30.73;21.87;;;8.50;91.20;;;;;;5074361;28;20040;-76
2021/05/01 00:37:53;;;;;;;29.80;19.97;;;8.50;91.10;;;;;;5056186;28;20074;-77
2021/05/01 00:40:18;;;;;;;32.30;22.67;;;8.50;91.10;;;;;;5074313;28;20465;-76
2021/05/01 00:42:44;;;;;;;29.80;21.67;;;8.40;91.10;;;;;;5074615;28;20032;-76
2021/05/01 00:45:10;;;;;;;32.10;22.67;;;8.40;91.10;;;;;;5074279;28;20090;-77
2021/05/01 00:47:35;;;;;;;31.67;22.57;;;8.40;91.10;;;;;;5074204;28;20055;-76
2021/05/01 00:50:02;;;;;;;35.97;22.30;;;8.40;91.10;;;;;;5074139;28;20039;-77
2021/05/01 00:52:28;;;;;;;31.97;22.77;;;8.40;91.20;;;;;;5056252;28;20036;-77
2021/05/01 00:54:53;;;;;;;35.73;23.60;;;8.30;91.20;;;;;;5074278;28;20111;-77
2021/05/01 00:57:19;;;;;;;31.37;23.23;;;8.30;91.30;;;;;;5056002;28;20033;-76
2021/05/01 00:59:45;;;;;;;33.50;23.50;;;8.30;91.20;;;;;;5074029;28;20092;-77
2021/05/01 01:02:14;;;;;;;30.00;20.77;;;8.20;91.20;;;;;;5073957;28;20169;-78
2021/05/01 01:04:41;;;;;;;31.87;22.33;;;8.20;91.30;;;;;;5074149;28;20099;-77
2021/05/01 01:07:06;;;;;;;33.20;22.30;;;8.20;91.30;;;;;;5074025;28;20028;-77
2021/05/01 01:09:32;;;;;;;33.80;23.13;;;8.20;91.30;;;;;;5073782;28;20029;-77
2021/05/01 01:11:58;;;;;;;28.50;21.40;;;8.20;91.20;;;;;;5055045;28;20389;-77
2021/05/01 01:14:24;;;;;;;32.20;20.93;;;8.10;91.20;;;;;;5056039;28;20032;-77
2021/05/01 01:16:49;;;;;;;35.17;20.07;;;8.10;91.20;;;;;;5039080;28;20033;-77
2021/05/01 01:19:15;;;;;;;28.67;19.70;;;8.00;91.30;;;;;;5074001;28;20029;-77
2021/05/01 01:21:46;;;;;;;29.23;20.00;;;8.00;91.30;;;;;;5055519;28;20040;-77
2021/05/01 01:24:12;;;;;;;30.83;20.40;;;8.00;91.40;;;;;;5073604;28;20032;-77
2021/05/01 01:26:39;;;;;;;26.53;18.87;;;8.00;91.40;;;;;;5055826;28;20413;-77
2021/05/01 01:29:06;;;;;;;29.73;19.93;;;8.00;91.40;;;;;;5055609;28;20387;-77
2021/05/01 01:31:32;;;;;;;27.80;19.83;;;8.00;91.50;;;;;;5073448;28;20021;-77
2021/05/01 01:33:58;;;;;;;25.83;19.33;;;7.90;91.40;;;;;;5073466;28;20111;-77
2021/05/01 01:36:24;;;;;;;26.83;19.60;;;7.90;91.50;;;;;;5073362;28;20029;-76
2021/05/01 01:38:50;;;;;;;28.80;19.83;;;7.90;91.60;;;;;;5055417;28;20047;-77
2021/05/01 01:41:15;;;;;;;29.43;18.03;;;7.80;91.50;;;;;;5073594;28;20047;-77
2021/05/01 01:43:41;;;;;;;25.27;18.07;;;7.90;91.60;;;;;;5073352;28;20495;-77
2021/05/01 01:46:06;;;;;;;22.37;17.00;;;7.80;91.50;;;;;;5073246;28;20029;-70
2021/05/01 01:48:32;;;;;;;26.53;17.27;;;7.80;91.60;;;;;;5055303;28;20032;-71
2021/05/01 01:50:58;;;;;;;21.87;16.43;;;7.70;91.60;;;;;;5038683;28;20522;-71
2021/05/01 01:53:24;;;;;;;23.87;16.57;;;7.80;91.60;;;;;;5055360;28;20119;-71
2021/05/01 01:55:51;;;;;;;25.53;16.73;;;7.70;91.50;;;;;;5055286;28;20052;-70
2021/05/01 01:58:18;;;;;;;23.07;15.63;;;7.70;91.60;;;;;;5055173;28;20106;-70
2021/05/01 02:00:44;;;;;;;25.20;15.87;;;7.60;91.90;;;;;;5055092;28;20029;-71
2021/05/01 02:03:10;;;;;;;25.77;15.40;;;7.60;91.60;;;;;;5073075;28;20043;-70
2021/05/01 02:05:36;;;;;;;19.20;14.10;;;7.50;91.60;;;;;;5055238;28;20028;-70
2021/05/01 02:08:01;;;;;;;23.80;13.40;;;7.50;91.80;;;;;;5038483;28;20025;-72
2021/05/01 02:10:27;;;;;;;22.87;14.00;;;7.40;91.80;;;;;;5073149;28;20033;-70
2021/05/01 02:12:52;;;;;;;20.20;14.60;;;7.40;91.80;;;;;;5038622;28;20108;-70
2021/05/01 02:15:20;;;;;;;21.13;14.87;;;7.40;91.80;;;;;;5038419;28;20028;-70
2021/05/01 02:17:49;;;;;;;26.67;14.27;;;7.40;92.10;;;;;;5055070;28;20027;-70
2021/05/01 02:20:20;;;;;;;26.20;13.70;;;7.40;91.80;;;;;;5072867;28;20025;-70
2021/05/01 02:22:46;;;;;;;23.63;13.00;;;7.30;91.80;;;;;;5073210;28;20021;-70
2021/05/01 02:25:12;;;;;;;25.70;14.40;;;7.30;91.70;;;;;;5076985;28;20017;-70
2021/05/01 02:27:38;;;;;;;22.60;12.53;;;7.20;91.70;;;;;;5059325;28;20396;-70
2021/05/01 02:30:10;;;;;;;22.07;13.80;;;7.20;91.70;;;;;;5076868;28;20024;-70
2021/05/01 02:32:35;;;;;;;20.83;13.17;;;7.20;91.60;;;;;;5058937;28;20016;-70
2021/05/01 02:35:02;;;;;;;22.23;13.80;;;7.10;91.60;;;;;;5058732;28;20024;-70
2021/05/01 02:37:28;;;;;;;26.77;13.77;;;7.10;91.70;;;;;;5076781;28;20029;-72
2021/05/01 02:39:53;;;;;;;21.17;13.67;;;7.00;91.70;;;;;;5058880;28;20028;-70
2021/05/01 02:42:19;;;;;;;22.50;13.37;;;7.00;91.70;;;;;;5058755;28;20033;-70
2021/05/01 02:44:44;;;;;;;22.43;14.07;;;7.00;91.70;;;;;;5076719;28;20021;-70
2021/05/01 02:47:10;;;;;;;21.93;13.53;;;7.00;91.70;;;;;;5058885;28;20028;-69
2021/05/01 02:49:36;;;;;;;26.43;15.23;;;6.90;91.70;;;;;;5076585;28;20377;-76
2021/05/01 02:52:02;;;;;;;23.70;14.30;;;6.90;91.80;;;;;;5058656;28;20029;-76
2021/05/01 02:54:27;;;;;;;26.90;15.50;;;6.90;91.90;;;;;;5042266;28;20021;-76
2021/05/01 02:56:53;;;;;;;26.77;17.13;;;6.80;92.00;;;;;;5041620;28;20024;-76
2021/05/01 02:59:18;;;;;;;28.27;16.43;;;6.70;92.10;;;;;;5076784;28;20413;-76
2021/05/01 03:01:44;;;;;;;24.40;16.60;;;6.70;92.10;;;;;;5058388;28;20024;-76
2021/05/01 03:04:09;;;;;;;24.77;16.47;;;6.70;92.10;;;;;;5041787;28;20074;-76
2021/05/01 03:06:35;;;;;;;25.03;15.87;;;6.70;92.10;;;;;;5076217;28;20021;-76
2021/05/01 03:09:01;;;;;;;28.73;16.67;;;6.70;92.10;;;;;;5058374;28;20399;-76
2021/05/01 03:11:26;;;;;;;25.20;16.33;;;6.70;92.10;;;;;;5058310;28;20040;-76
2021/05/01 03:13:52;;;;;;;25.97;17.70;;;6.60;92.00;;;;;;5058018;28;20029;-76
2021/05/01 03:16:17;;;;;;;28.47;17.83;;;6.60;92.10;;;;;;5075929;28;20054;-76
2021/05/01 03:18:43;;;;;;;26.90;17.83;;;6.50;92.10;;;;;;5076249;28;20071;-76
2021/05/01 03:21:09;;;;;;;25.80;17.93;;;6.50;92.10;;;;;;5075834;28;20044;-76
2021/05/01 03:23:34;;;;;;;25.77;17.90;;;6.50;92.10;;;;;;5075995;28;20013;-76
2021/05/01 03:26:00;;;;;;;33.73;18.97;;;6.50;92.40;;;;;;5057912;28;20025;-76
2021/05/01 03:28:26;;;;;;;29.37;19.20;;;6.40;92.20;;;;;;5075857;28;20467;-76
2021/05/01 03:30:51;;;;;;;32.27;18.93;;;6.40;92.20;;;;;;5076070;28;20542;-76
2021/05/01 03:33:17;;;;;;;26.73;18.20;;;6.30;92.20;;;;;;5057944;28;20499;-75
2021/05/01 03:35:43;;;;;;;32.23;19.03;;;6.30;92.20;;;;;;5057059;28;20029;-76
2021/05/01 03:38:08;;;;;;;30.13;18.53;;;6.20;92.20;;;;;;5075704;28;20089;-76
2021/05/01 03:40:34;;;;;;;32.27;18.63;;;6.20;92.30;;;;;;5075468;28;20025;-76
2021/05/01 03:42:59;;;;;;;26.53;18.60;;;6.20;92.30;;;;;;5057558;28;20066;-76
2021/05/01 03:45:25;;;;;;;32.63;17.80;;;6.10;92.30;;;;;;5075647;28;20024;-76
2021/05/01 03:47:51;;;;;;;31.80;18.97;;;6.10;92.30;;;;;;5075532;28;20563;-76
2021/05/01 03:50:16;;;;;;;25.77;19.37;;;6.10;92.30;;;;;;5057614;28;20029;-76
2021/05/01 03:52:42;;;;;;;31.90;18.53;;;6.00;92.30;;;;;;5040841;28;20472;-76
2021/05/01 03:55:08;;;;;;;27.23;18.73;;;6.00;92.40;;;;;;5075326;28;20074;-70
2021/05/01 03:57:34;;;;;;;27.87;18.30;;;6.00;92.40;;;;;;5075048;28;20029;-70
2021/05/01 04:00:00;;;;;;;26.30;17.90;;;6.00;92.40;;;;;;5057278;28;20029;-70
2021/05/01 04:02:26;;;;;;;28.90;18.00;;;5.90;92.40;;;;;;5054693;28;20052;-70
2021/05/01 04:04:51;;;;;;;27.60;18.37;;;6.00;92.50;;;;;;5074477;28;20031;-70
2021/05/01 04:07:17;;;;;;;29.80;19.07;;;5.90;92.70;;;;;;5055097;28;20035;-70
2021/05/01 04:09:43;;;;;;;27.23;17.90;;;5.90;92.50;;;;;;5074553;28;20052;-70
2021/05/01 04:12:08;;;;;;;27.10;17.47;;;5.80;92.50;;;;;;5067298;28;20036;-77
2021/05/01 04:14:34;;;;;;;27.10;17.43;;;5.80;92.60;;;;;;5053907;28;20423;-76
2021/05/01 04:17:00;;;;;;;27.73;17.87;;;5.80;92.60;;;;;;5054322;28;20039;-77
2021/05/01 04:19:25;;;;;;;25.53;17.50;;;5.80;92.60;;;;;;5036714;28;20109;-70
2021/05/01 04:21:51;;;;;;;30.73;18.60;;;5.70;92.60;;;;;;5036437;28;20091;-71
2021/05/01 04:24:17;;;;;;;28.43;18.77;;;5.70;92.60;;;;;;5054461;28;20108;-70
2021/05/01 04:26:42;;;;;;;31.80;17.13;;;5.70;92.60;;;;;;5054712;28;20477;-70
2021/05/01 04:29:08;;;;;;;26.57;16.37;;;5.80;92.60;;;;;;5036787;28;20025;-70
2021/05/01 04:31:34;;;;;;;28.23;18.03;;;5.70;92.60;;;;;;5036782;28;20108;-70
2021/05/01 04:33:59;;;;;;;25.13;16.40;;;5.70;92.60;;;;;;5036834;28;20083;-70
2021/05/01 04:36:25;;;;;;;27.27;17.77;;;5.60;92.60;;;;;;5036544;28;20025;-70
2021/05/01 04:38:51;;;;;;;29.40;17.70;;;5.70;92.60;;;;;;5036648;28;20035;-70
2021/05/01 04:41:16;;;;;;;25.73;16.70;;;5.60;92.70;;;;;;5054410;28;20031;-70
2021/05/01 04:43:44;;;;;;;27.93;18.07;;;5.50;92.70;;;;;;5054577;28;20040;-70
2021/05/01 04:46:14;;;;;;;26.83;16.83;;;5.60;92.80;;;;;;5054149;28;20362;-71
2021/05/01 04:48:40;;;;;;;32.53;18.10;;;5.60;92.80;;;;;;5036642;28;20037;-71
2021/05/01 04:51:06;;;;;;;30.17;18.17;;;5.60;92.90;;;;;;5054231;28;20421;-70
2021/05/01 04:53:31;;;;;;;34.57;19.03;;;5.60;92.90;;;;;;5054061;28;20485;-70
2021/05/01 04:55:57;;;;;;;26.80;18.13;;;5.60;92.90;;;;;;5036199;28;20035;-70
2021/05/01 04:58:22;;;;;;;29.90;18.70;;;5.60;93.00;;;;;;5036101;28;20358;-70
2021/05/01 05:00:48;;;;;;;31.83;19.43;;;5.60;93.00;;;;;;5054050;28;20060;-70
2021/05/01 05:03:13;;;;;;;27.47;18.57;;;5.60;93.00;;;;;;5036269;28;20029;-70
2021/05/01 05:05:39;;;;;;;27.87;18.77;;;5.60;93.00;;;;;;5036109;28;20035;-70
2021/05/01 05:08:05;;;;;;;32.03;20.53;;;5.60;93.00;;;;;;5054045;28;20044;-70
2021/05/01 05:10:32;;;;;;;31.10;20.07;;;5.60;93.00;;;;;;5053855;28;20021;-70
2021/05/01 05:12:57;;;;;;;29.70;21.07;;;5.60;93.00;;;;;;5036219;28;20021;-70
2021/05/01 05:15:23;;;;;;;31.70;21.17;;;5.70;93.10;;;;;;5035916;28;20032;-70
2021/05/01 05:17:48;;;;;;;35.13;20.60;;;5.70;93.10;;;;;;5053745;28;20469;-70
2021/05/01 05:20:14;;;;;;;38.60;21.60;;;5.70;93.20;;;;;;5053727;28;20380;-70
2021/05/01 05:22:40;;;;;;;31.67;21.03;;;5.70;93.10;;;;;;5053576;28;20044;-70
2021/05/01 05:25:06;;;;;;;33.73;21.60;;;5.70;93.20;;;;;;5061440;28;20021;-70
2021/05/01 05:27:32;;;;;;;29.80;21.13;;;5.70;93.20;;;;;;5043150;28;20034;-70
2021/05/01 05:29:58;;;;;;;37.13;21.80;;;5.70;93.20;;;;;;5053000;28;20107;-70
2021/05/01 05:32:24;;;;;;;34.03;21.67;;;5.70;93.20;;;;;;5058124;28;20460;-71
2021/05/01 05:34:51;;;;;;;32.27;20.60;;;5.80;93.20;;;;;;5058774;28;20083;-71
2021/05/01 05:37:17;;;;;;;32.00;20.53;;;5.80;93.20;;;;;;5065734;28;20032;-70
2021/05/01 05:39:45;;;;;;;31.40;22.03;;;5.80;93.20;;;;;;5073162;28;20086;-71
2021/05/01 05:42:11;;;;;;;31.70;22.70;;;5.90;93.30;;;;;;5054385;28;20021;-70
2021/05/01 05:44:39;;;;;;;33.37;22.73;;;5.90;93.30;;;;;;5071551;28;20067;-71
2021/05/01 05:47:05;;;;;;;33.63;21.93;;;6.00;93.30;;;;;;5060683;28;20028;-70
2021/05/01 05:49:31;;;;;;;38.37;23.73;;;6.00;93.30;;;;;;5075456;28;20036;-70
2021/05/01 05:51:56;;;;;;;33.20;22.47;;;6.00;93.30;;;;;;5037584;28;20051;-71
2021/05/01 05:54:22;;;;;;;31.90;22.63;;;6.00;93.30;;;;;;5055867;28;20048;-72
2021/05/01 05:56:48;;;;;;;37.70;23.60;;;6.00;93.30;;;;;;5055460;28;20063;-72
2021/05/01 05:59:13;;;;;;;34.57;23.50;;;6.10;93.40;;;;;;5054456;28;20025;-71
2021/05/01 06:01:40;;;;;;;38.57;24.23;;;6.10;93.40;;;;;;5055284;28;20032;-73
2021/05/01 06:04:21;;;;;;;39.13;25.90;;;6.30;93.40;;;;;;5042178;28;20020;-71
2021/05/01 06:07:11;;;;;;;37.17;24.87;;;6.20;93.40;;;;;;5093320;28;20441;-72
2021/05/01 06:09:40;;;;;;;39.17;25.60;;;6.20;93.40;;;;;;5093525;28;20027;-71
2021/05/01 06:12:10;;;;;;;43.87;26.43;;;6.30;93.60;;;;;;5093432;28;20031;-72
2021/05/01 06:14:43;;;;;;;35.47;25.90;;;6.30;93.60;;;;;;5093418;28;20399;-71
2021/05/01 06:17:12;;;;;;;43.70;27.63;;;6.40;93.60;;;;;;5084035;28;20036;-71
2021/05/01 06:19:42;;;;;;;37.03;26.87;;;6.40;93.60;;;;;;5084493;28;20024;-71
2021/05/01 06:22:07;;;;;;;40.60;27.77;;;6.40;93.60;;;;;;5074915;28;20189;-71
2021/05/01 06:24:34;;;;;;;36.90;26.07;;;6.40;93.70;;;;;;5083782;28;20115;-71
2021/05/01 06:27:01;;;;;;;39.40;26.67;;;6.50;93.70;;;;;;5051781;28;20496;-71
2021/05/01 06:29:28;;;;;;;45.07;27.80;;;6.60;93.80;;;;;;5054290;28;20025;-71
2021/05/01 06:31:54;;;;;;;42.13;26.50;;;6.60;93.90;;;;;;5072911;28;20365;-71
2021/05/01 06:34:19;;;;;;;39.63;25.17;;;6.60;93.80;;;;;;5055257;28;20029;-71
2021/05/01 06:36:45;;;;;;;39.77;25.83;;;6.70;93.80;;;;;;5057264;28;20503;-71
2021/05/01 06:39:13;;;;;;;38.27;26.40;;;6.70;93.90;;;;;;5077805;28;20021;-71
2021/05/01 06:41:45;;;;;;;43.27;26.20;;;6.80;93.90;;;;;;5057299;28;20075;-72
2021/05/01 06:44:19;;;;;;;35.63;23.77;;;6.90;93.90;;;;;;5074588;28;20419;-71
2021/05/01 06:46:50;;;;;;;34.87;24.37;;;6.90;93.80;;;;;;5059910;28;20055;-71
2021/05/01 06:49:52;;;;;;;37.27;21.73;;;7.00;93.80;;;;;;5064140;28;20024;-72
2021/05/01 06:52:19;;;;;;;32.50;20.30;;;7.20;93.80;;;;;;5072374;28;20035;-71
2021/05/01 06:54:45;;;;;;;32.83;20.60;;;7.20;93.80;;;;;;5054470;28;20383;-73
2021/05/01 06:57:13;;;;;;;31.87;19.50;;;7.30;93.70;;;;;;5072247;28;20029;-72
2021/05/01 06:59:41;;;;;;;29.83;18.97;;;7.30;93.60;;;;;;5050542;28;20365;-72
2021/05/01 07:02:09;;;;;;;27.67;19.00;;;7.40;93.50;;;;;;5071818;28;20020;-71
2021/05/01 07:04:36;;;;;;;29.03;20.03;;;7.40;93.40;;;;;;5070852;28;20020;-71
2021/05/01 07:07:03;;;;;;;32.77;18.80;;;7.50;93.40;;;;;;5071962;28;20025;-71
2021/05/01 07:09:30;;;;;;;27.80;17.63;;;7.50;93.30;;;;;;5055417;28;20078;-71
2021/05/01 07:11:56;;;;;;;24.60;15.67;;;7.50;93.20;;;;;;5075624;28;20020;-71
2021/05/01 07:14:22;;;;;;;26.53;17.40;;;7.60;93.20;;;;;;5075656;28;20527;-71
2021/05/01 07:16:48;;;;;;;28.17;18.03;;;7.60;93.10;;;;;;5075520;28;20116;-70
2021/05/01 07:19:15;;;;;;;28.33;17.63;;;7.70;93.10;;;;;;5057505;28;20055;-71
2021/05/01 07:21:41;;;;;;;24.23;16.77;;;7.80;93.10;;;;;;5075440;28;20048;-70
2021/05/01 07:24:07;;;;;;;22.27;14.67;;;7.80;92.90;;;;;;5041046;28;20074;-70
2021/05/01 07:26:35;;;;;;;30.23;16.73;;;7.90;92.90;;;;;;5075145;28;20024;-71
2021/05/01 07:29:03;;;;;;;22.83;15.53;;;8.00;93.00;;;;;;5076285;28;20032;-71
2021/05/01 07:31:30;;;;;;;22.07;12.80;;;8.10;92.90;;;;;;5076062;28;20380;-80
2021/05/01 07:33:57;;;;;;;19.00;14.10;;;8.20;92.80;;;;;;5057914;28;20061;-76
2021/05/01 07:36:51;;;;;;;21.40;12.47;;;8.40;92.50;;;;;;5075748;28;20025;-75
2021/05/01 07:39:19;;;;;;;20.50;11.57;;;8.60;92.30;;;;;;5073027;28;20028;-75
2021/05/01 07:41:45;;;;;;;21.57;12.37;;;8.70;92.50;;;;;;5075623;28;20106;-78
2021/05/01 07:44:12;;;;;;;16.47;10.50;;;8.80;92.30;;;;;;5057700;28;20032;-77
2021/05/01 07:46:39;;;;;;;14.57;9.73;;;8.90;91.70;;;;;;5075929;28;20032;-77
2021/05/01 07:49:09;;;;;;;18.37;9.77;;;9.00;91.40;;;;;;5058003;28;20102;-78
2021/05/01 07:51:38;;;;;;;14.03;8.77;;;9.00;91.00;;;;;;5075724;28;20029;-76
2021/05/01 07:54:04;;;;;;;16.80;10.37;;;9.00;90.90;;;;;;5057516;28;20472;-77
2021/05/01 07:56:30;;;;;;;18.40;9.80;;;9.10;90.50;;;;;;5075266;28;20066;-76
2021/05/01 07:58:56;;;;;;;17.57;9.60;;;9.10;90.50;;;;;;5075986;28;20024;-79
2021/05/01 08:01:22;;;;;;;12.87;8.30;;;9.20;89.90;;;;;;5075432;28;20028;-78
2021/05/01 08:03:48;;;;;;;13.63;8.37;;;9.30;88.70;;;;;;5057422;28;20024;-78
2021/05/01 08:06:14;;;;;;;12.33;8.17;;;9.30;88.40;;;;;;5057388;28;20518;-79
2021/05/01 08:08:40;;;;;;;15.43;8.00;;;9.50;88.00;;;;;;5075174;28;20037;-78
2021/05/01 08:11:06;;;;;;;20.57;8.07;;;9.60;87.90;;;;;;5075132;28;20028;-78
2021/05/01 08:13:31;;;;;;;12.70;7.60;;;9.70;87.40;;;;;;5057172;28;20036;-77
2021/05/01 08:15:57;;;;;;;13.70;6.97;;;9.80;86.80;;;;;;5040508;28;20511;-77
2021/05/01 08:18:22;;;;;;;14.73;6.73;;;9.80;85.30;;;;;;5057064;28;20501;-77
2021/05/01 08:20:51;;;;;;;12.00;6.40;;;9.80;83.90;;;;;;5039709;28;20581;-78
2021/05/01 08:23:17;;;;;;;15.60;8.20;;;9.80;83.60;;;;;;5075194;28;20033;-75
2021/05/01 08:25:43;;;;;;;11.77;6.87;;;9.90;83.30;;;;;;5075151;28;20021;-75
2021/05/01 08:28:09;;;;;;;9.93;6.30;;;10.00;83.90;;;;;;5056634;28;20051;-76
2021/05/01 08:30:35;;;;;;;11.63;6.10;;;10.00;83.10;;;;;;5077235;28;20086;-75
2021/05/01 08:33:01;;;;;;;9.77;5.30;;;10.20;82.20;;;;;;5068113;28;20515;-75
2021/05/01 08:35:26;;;;;;;12.67;4.90;;;10.30;81.10;;;;;;5093046;28;20024;-74
2021/05/01 08:37:52;;;;;;;7.47;4.50;;;10.30;78.00;;;;;;5061456;28;20024;-75
2021/05/01 08:40:17;;;;;;;8.03;4.40;;;10.40;78.80;;;;;;5057010;28;20058;-75
2021/05/01 08:42:45;;;;;;;16.20;5.77;;;10.50;79.10;;;;;;5074513;28;20059;-77
2021/05/01 08:45:14;;;;;;;8.47;4.23;;;10.60;77.90;;;;;;5074943;28;20482;-75
2021/05/01 08:47:42;;;;;;;11.43;4.70;;;10.70;76.50;;;;;;5075676;28;20035;-76
2021/05/01 08:50:26;;;;;;;9.30;4.20;;;10.70;76.00;;;;;;5077640;28;20086;-75
2021/05/01 08:52:55;;;;;;;9.82;4.28;;;10.80;76.40;;;;;;5074429;28;20036;-76
2021/05/01 08:55:25;;;;;;;9.30;4.73;;;10.90;75.90;;;;;;5074405;28;20469;-76
2021/05/01 08:57:52;;;;;;;9.10;4.47;;;10.90;74.60;;;;;;5056507;28;20471;-75
2021/05/01 09:00:18;;;;;;;8.50;4.10;;;11.00;74.30;;;;;;5066205;28;20012;-77
2021/05/01 09:02:44;;;;;;;10.50;5.03;;;11.00;73.00;;;;;;5077100;28;20021;-78
2021/05/01 09:05:11;;;;;;;10.17;4.40;;;11.10;73.10;;;;;;5039545;28;20028;-76
2021/05/01 09:07:38;;;;;;;12.73;5.03;;;11.10;70.90;;;;;;5057361;28;20116;-79
2021/05/01 09:10:06;;;;;;;14.23;5.37;;;11.10;70.80;;;;;;5034092;28;20470;-77
2021/05/01 09:12:44;;;;;;;10.03;4.80;;;11.10;70.50;;;;;;5063528;28;20387;-76
2021/05/01 09:15:22;;;;;;;10.87;4.73;;;11.00;70.90;;;;;;5081225;28;20533;-76
2021/05/01 09:17:48;;;;;;;9.07;4.47;;;11.10;71.20;;;;;;5073068;28;20111;-75
2021/05/01 09:20:16;;;;;;;9.90;4.67;;;11.20;71.90;;;;;;5094269;28;20028;-75
2021/05/01 09:22:52;;;;;;;9.13;3.40;;;11.40;72.00;;;;;;5090577;28;20391;-76
2021/05/01 09:25:18;;;;;;;12.35;4.15;;;11.50;69.80;;;;;;5094077;28;20031;-74
2021/05/01 09:28:03;;;;;;;7.73;3.83;;;11.50;66.50;;;;;;5094113;28;20032;-76
2021/05/01 09:30:32;;;;;;;10.30;4.83;;;11.50;67.30;;;;;;5065412;28;20020;-75
2021/05/01 09:33:20;;;;;;;8.37;3.60;;;11.50;67.90;;;;;;5072935;28;20028;-78
2021/05/01 09:35:56;;;;;;;6.28;3.35;;;11.60;67.40;;;;;;5061550;28;20021;-78
2021/05/01 09:38:22;;;;;;;6.80;3.43;;;11.70;67.20;;;;;;5070355;28;20028;-79
2021/05/01 09:40:49;;;;;;;8.93;3.77;;;11.80;67.40;;;;;;5075764;28;20070;-79
2021/05/01 09:43:15;;;;;;;7.22;3.85;;;11.80;66.90;;;;;;5075604;28;20027;-79
2021/05/01 09:45:41;;;;;;;9.70;3.85;;;11.90;66.00;;;;;;5093874;28;20024;-78
2021/05/01 09:48:15;;;;;;;7.80;3.60;;;11.90;66.10;;;;;;5093181;28;20120;-77
2021/05/01 09:50:42;;;;;;;8.75;3.53;;;11.90;66.30;;;;;;5093184;28;20035;-78
2021/05/01 09:53:13;;;;;;;10.13;4.47;;;11.90;66.10;;;;;;5093677;28;20144;-77
2021/05/01 09:55:41;;;;;;;9.05;3.80;;;12.00;64.70;;;;;;5092038;28;20027;-77
2021/05/01 09:58:20;;;;;;;8.38;3.05;;;12.00;64.30;;;;;;5065465;28;20081;-78
2021/05/01 10:00:48;;;;;;;7.20;2.85;;;12.00;64.10;;;;;;5054325;28;20021;-77
2021/05/01 10:03:31;;;;;;;6.28;2.85;;;12.10;63.50;;;;;;5072878;28;20020;-70
2021/05/01 10:06:00;;;;;;;7.00;3.00;;;12.30;63.40;;;;;;5054763;28;20357;-73
2021/05/01 10:08:29;;;;;;;8.63;3.10;;;12.40;62.50;;;;;;5073476;28;20032;-72
2021/05/01 10:10:55;;;;;;;6.93;3.22;;;12.50;61.70;;;;;;5057745;28;20082;-71
2021/05/01 10:13:22;;;;;;;7.90;2.88;;;12.60;61.30;;;;;;5054911;28;20032;-72
2021/05/01 10:15:48;;;;;;;5.82;2.45;;;12.70;61.20;;;;;;5055465;28;20038;-77
2021/05/01 10:18:18;;;;;;;6.35;2.40;;;12.90;60.20;;;;;;5055068;28;20024;-71
2021/05/01 10:20:49;;;;;;;6.72;2.40;;;13.00;59.90;;;;;;5055198;28;20028;-72
2021/05/01 10:23:26;;;;;;;4.78;2.25;;;13.10;60.10;;;;;;5072973;28;20074;-73
2021/05/01 10:25:52;;;;;;;7.00;2.60;;;13.10;59.50;;;;;;5054779;28;20024;-69
2021/05/01 10:28:19;;;;;;;5.90;2.78;;;13.10;58.00;;;;;;5072884;28;20024;-77
2021/05/01 10:30:54;;;;;;;6.40;3.08;;;13.10;58.40;;;;;;5038914;28;20031;-71
2021/05/01 10:33:26;;;;;;;7.75;3.55;;;12.90;58.30;;;;;;5054970;28;20024;-74
2021/05/01 10:36:13;;;;;;;6.32;2.40;;;12.80;58.70;;;;;;5055111;28;20017;-75
2021/05/01 10:38:39;;;;;;;8.18;2.65;;;12.70;59.00;;;;;;5054828;28;20047;-72
2021/05/01 10:41:18;;;;;;;8.48;2.95;;;12.70;59.00;;;;;;5054840;28;20417;-77
2021/05/01 10:43:50;;;;;;;8.55;2.95;;;12.70;58.80;;;;;;5073210;28;20535;-73
2021/05/01 10:46:25;;;;;;;6.55;3.15;;;12.60;59.90;;;;;;5058809;28;20096;-74
2021/05/01 10:48:53;;;;;;;7.05;3.05;;;12.50;59.50;;;;;;5067019;28;20020;-72
2021/05/01 10:51:22;;;;;;;4.55;2.10;;;12.50;59.80;;;;;;5096875;28;20032;-71
2021/05/01 10:54:05;;;;;;;5.85;2.42;;;12.50;59.60;;;;;;5082424;28;20390;-76
2021/05/01 10:56:32;;;;;;;7.28;2.42;;;12.50;59.20;;;;;;5085056;28;20488;-71
2021/05/01 10:59:05;;;;;;;5.50;2.50;;;12.50;59.70;;;;;;5061147;28;20111;-72
2021/05/01 11:01:48;;;;;;;7.28;2.72;;;12.50;59.90;;;;;;5060790;28;20030;-72
2021/05/01 11:04:27;;;;;;;6.20;2.25;;;12.60;59.50;;;;;;5084051;28;20027;-81
2021/05/01 11:07:08;;;;;;;6.63;2.92;;;12.80;59.30;;;;;;5093503;28;20072;-78
2021/05/01 11:09:46;;;;;;;7.93;2.40;;;13.00;58.70;;;;;;5078914;28;20023;-80
2021/05/01 11:12:15;;;;;;;4.15;1.98;;;13.10;59.20;;;;;;5085414;28;20024;-78
2021/05/01 11:14:51;;;;;;;4.95;2.03;;;13.30;57.70;;;;;;5062121;28;20021;-79
2021/05/01 11:17:30;;;;;;;4.30;1.55;;;13.60;58.10;;;;;;5070226;28;20024;-77
2021/05/01 11:20:09;;;;;;;4.95;2.22;;;14.30;57.70;;;;;;5076194;28;20025;-77
2021/05/01 11:22:37;;;;;;;4.97;1.58;;;15.00;56.50;;;;;;5080188;28;20044;-76
2021/05/01 11:25:11;;;;;;;8.77;1.80;;;15.50;55.60;;;;;;5062204;28;20104;-76
2021/05/01 11:27:38;;;;;;;5.50;1.75;;;15.70;53.50;;;;;;5091571;28;20028;-76
2021/05/01 11:30:05;;;;;;;4.68;2.20;;;15.90;52.40;;;;;;5075985;28;20067;-76
2021/05/01 11:32:31;;;;;;;6.25;1.80;;;16.00;51.50;;;;;;5057903;28;20029;-77
2021/05/01 11:35:11;;;;;;;5.13;2.15;;;16.10;51.20;;;;;;5057987;28;20395;-76
2021/05/01 11:37:38;;;;;;;6.82;2.35;;;15.90;50.50;;;;;;5075942;28;20119;-86
2021/05/01 11:40:05;;;;;;;6.57;2.50;;;15.80;50.10;;;;;;5057944;28;20029;-76
2021/05/01 11:42:31;;;;;;;5.70;2.40;;;15.60;50.00;;;;;;5075892;28;20537;-77
2021/05/01 11:44:57;;;;;;;6.03;2.13;;;15.40;49.60;;;;;;5075809;28;20034;-76
2021/05/01 11:47:27;;;;;;;7.25;2.75;;;15.20;50.00;;;;;;5075715;28;20044;-79
2021/05/01 11:49:56;;;;;;;6.90;2.70;;;15.00;49.80;;;;;;5075621;28;20033;-76
2021/05/01 11:52:27;;;;;;;6.25;1.98;;;14.80;50.20;;;;;;5057622;28;20539;-76
2021/05/01 11:55:19;;;;;;;5.10;2.20;;;14.70;50.50;;;;;;5075526;28;20032;-77
2021/05/01 11:57:57;;;;;;;7.03;1.88;;;14.60;50.00;;;;;;5057008;28;20024;-77
2021/05/01 12:00:41;;;;;;;5.38;2.03;;;14.40;50.00;;;;;;5057409;28;20495;-79
2021/05/01 12:03:27;;;;;;;5.97;1.67;;;14.30;50.10;;;;;;5075649;28;20074;-77
2021/05/01 12:05:58;;;;;;;4.80;1.73;;;14.30;50.50;;;;;;5074730;28;20045;-76
2021/05/01 12:08:25;;;;;;;4.45;1.80;;;14.30;50.90;;;;;;5075227;28;20027;-76
2021/05/01 12:10:56;;;;;;;8.23;1.77;;;14.40;52.00;;;;;;5075317;28;20036;-77
2021/05/01 12:13:36;;;;;;;5.28;1.98;;;14.70;51.40;;;;;;5058076;28;20034;-76
2021/05/01 12:16:05;;;;;;;5.25;1.63;;;15.00;50.90;;;;;;5080970;28;20085;-76
2021/05/01 12:18:44;;;;;;;5.07;1.25;;;15.20;50.50;;;;;;5095563;28;20020;-79
2021/05/01 12:21:30;;;;;;;9.25;2.42;;;15.20;50.10;;;;;;5073662;28;20125;-76
2021/05/01 12:23:58;;;;;;;5.28;2.05;;;15.20;49.70;;;;;;5075072;28;20043;-77
2021/05/01 12:26:39;;;;;;;4.75;1.73;;;15.10;49.50;;;;;;5075089;28;20484;-79
2021/05/01 12:29:23;;;;;;;3.75;1.70;;;15.10;49.60;;;;;;5073659;28;20082;-72
2021/05/01 12:31:51;;;;;;;4.65;1.80;;;15.50;50.10;;;;;;5074956;28;20100;-70
2021/05/01 12:34:18;;;;;;;4.43;1.80;;;15.50;49.50;;;;;;5057098;28;20031;-74
2021/05/01 12:36:49;;;;;;;7.05;2.15;;;15.50;49.40;;;;;;5073857;28;20468;-71
2021/05/01 12:39:16;;;;;;;5.18;2.08;;;15.40;49.00;;;;;;5073575;28;20023;-71
2021/05/01 12:41:44;;;;;;;4.03;2.22;;;15.30;49.40;;;;;;5074661;28;20017;-79
2021/05/01 12:44:31;;;;;;;9.05;2.88;;;15.20;49.60;;;;;;5074894;28;20102;-71
2021/05/01 12:46:57;;;;;;;6.90;2.50;;;15.10;49.70;;;;;;5073020;28;20119;-70